sensor_id;sensor_type;location;lat;lon;timestamp;P1;durP1;ratioP1;P2;durP2;ratioP2
77451;SDS011;66537;52.370;4.832;2023-11-21T00:01:51;17.93;;;7.53;;
77451;SDS011;66537;52.370;4.832;2023-11-21T00:04:16;22.27;;;6.70;;
77451;SDS011;66537;52.370;4.832;2023-11-21T00:06:42;15.83;;;6.40;;
77451;SDS011;66537;52.370;4.832;2023-11-21T00:09:07;20.97;;;6.90;;
77451;SDS011;66537;52.370;4.832;2023-11-21T00:11:33;18.33;;;7.55;;
77451;SDS011;66537;52.370;4.832;2023-11-21T00:13:59;19.80;;;6.30;;
77451;SDS011;66537;52.370;4.832;2023-11-21T00:16:24;14.48;;;5.43;;
77451;SDS011;66537;52.370;4.832;2023-11-21T00:18:50;17.73;;;6.45;;
77451;SDS011;66537;52.370;4.832;2023-11-21T00:21:16;20.10;;;6.30;;
77451;SDS011;66537;52.370;4.832;2023-11-21T00:23:41;21.60;;;6.22;;
77451;SDS011;66537;52.370;4.832;2023-11-21T00:26:06;20.90;;;6.53;;
77451;SDS011;66537;52.370;4.832;2023-11-21T00:28:32;21.02;;;6.18;;
77451;SDS011;66537;52.370;4.832;2023-11-21T00:30:57;22.17;;;6.50;;
77451;SDS011;66537;52.370;4.832;2023-11-21T00:33:22;16.27;;;6.07;;
77451;SDS011;66537;52.370;4.832;2023-11-21T00:35:48;20.90;;;6.28;;
77451;SDS011;66537;52.370;4.832;2023-11-21T00:38:13;18.70;;;6.07;;
77451;SDS011;66537;52.370;4.832;2023-11-21T00:40:39;19.00;;;6.13;;
77451;SDS011;66537;52.370;4.832;2023-11-21T00:43:04;23.63;;;6.07;;
77451;SDS011;66537;52.370;4.832;2023-11-21T00:45:30;18.13;;;6.05;;
77451;SDS011;66537;52.370;4.832;2023-11-21T00:47:55;13.80;;;5.57;;
77451;SDS011;66537;52.370;4.832;2023-11-21T00:50:21;19.38;;;6.45;;
77451;SDS011;66537;52.370;4.832;2023-11-21T00:52:46;23.15;;;6.68;;
77451;SDS011;66537;52.370;4.832;2023-11-21T00:55:12;19.03;;;6.07;;
77451;SDS011;66537;52.370;4.832;2023-11-21T00:57:37;20.02;;;5.63;;
77451;SDS011;66537;52.370;4.832;2023-11-21T01:00:03;20.37;;;6.53;;
77451;SDS011;66537;52.370;4.832;2023-11-21T01:02:32;19.80;;;6.05;;
77451;SDS011;66537;52.370;4.832;2023-11-21T01:05:00;15.55;;;5.25;;
77451;SDS011;66537;52.370;4.832;2023-11-21T01:07:25;24.17;;;6.77;;
77451;SDS011;66537;52.370;4.832;2023-11-21T01:09:52;18.48;;;6.60;;
77451;SDS011;66537;52.370;4.832;2023-11-21T01:12:17;17.93;;;6.07;;
77451;SDS011;66537;52.370;4.832;2023-11-21T01:14:42;20.63;;;5.67;;
77451;SDS011;66537;52.370;4.832;2023-11-21T01:17:08;20.17;;;5.43;;
77451;SDS011;66537;52.370;4.832;2023-11-21T01:19:33;18.23;;;5.35;;
77451;SDS011;66537;52.370;4.832;2023-11-21T01:21:58;21.30;;;7.17;;
77451;SDS011;66537;52.370;4.832;2023-11-21T01:24:24;16.88;;;5.63;;
77451;SDS011;66537;52.370;4.832;2023-11-21T01:26:49;20.95;;;5.57;;
77451;SDS011;66537;52.370;4.832;2023-11-21T01:29:15;17.20;;;5.67;;
77451;SDS011;66537;52.370;4.832;2023-11-21T01:31:40;17.43;;;6.63;;
77451;SDS011;66537;52.370;4.832;2023-11-21T01:34:06;19.08;;;6.10;;
77451;SDS011;66537;52.370;4.832;2023-11-21T01:36:32;20.85;;;5.65;;
77451;SDS011;66537;52.370;4.832;2023-11-21T01:38:57;15.10;;;5.45;;
77451;SDS011;66537;52.370;4.832;2023-11-21T01:41:24;15.77;;;4.90;;
77451;SDS011;66537;52.370;4.832;2023-11-21T01:43:52;17.73;;;4.93;;
77451;SDS011;66537;52.370;4.832;2023-11-21T01:46:18;19.48;;;5.65;;
77451;SDS011;66537;52.370;4.832;2023-11-21T01:48:45;19.95;;;5.78;;
77451;SDS011;66537;52.370;4.832;2023-11-21T01:51:11;15.48;;;4.97;;
77451;SDS011;66537;52.370;4.832;2023-11-21T01:53:36;16.83;;;5.70;;
77451;SDS011;66537;52.370;4.832;2023-11-21T01:56:01;21.75;;;5.32;;
77451;SDS011;66537;52.370;4.832;2023-11-21T01:58:27;13.43;;;4.90;;
77451;SDS011;66537;52.370;4.832;2023-11-21T02:00:52;18.77;;;5.43;;
77451;SDS011;66537;52.370;4.832;2023-11-21T02:03:19;18.02;;;5.20;;
77451;SDS011;66537;52.370;4.832;2023-11-21T02:05:45;17.77;;;6.32;;
77451;SDS011;66537;52.370;4.832;2023-11-21T02:08:11;17.67;;;6.60;;
77451;SDS011;66537;52.370;4.832;2023-11-21T02:10:36;16.73;;;5.43;;
77451;SDS011;66537;52.370;4.832;2023-11-21T02:13:02;18.20;;;5.82;;
77451;SDS011;66537;52.370;4.832;2023-11-21T02:15:28;17.95;;;5.78;;
77451;SDS011;66537;52.370;4.832;2023-11-21T02:17:54;17.98;;;5.53;;
77451;SDS011;66537;52.370;4.832;2023-11-21T02:20:20;19.17;;;6.55;;
77451;SDS011;66537;52.370;4.832;2023-11-21T02:22:56;17.83;;;5.35;;
77451;SDS011;66537;52.370;4.832;2023-11-21T02:27:52;14.77;;;4.68;;
77451;SDS011;66537;52.370;4.832;2023-11-21T02:30:19;16.40;;;5.65;;
77451;SDS011;66537;52.370;4.832;2023-11-21T02:32:46;21.52;;;6.60;;
77451;SDS011;66537;52.370;4.832;2023-11-21T02:35:13;20.55;;;5.90;;
77451;SDS011;66537;52.370;4.832;2023-11-21T02:37:38;21.83;;;6.30;;
77451;SDS011;66537;52.370;4.832;2023-11-21T02:40:05;20.52;;;6.63;;
77451;SDS011;66537;52.370;4.832;2023-11-21T02:42:33;23.10;;;6.18;;
77451;SDS011;66537;52.370;4.832;2023-11-21T02:44:59;18.80;;;5.95;;
77451;SDS011;66537;52.370;4.832;2023-11-21T02:47:24;20.83;;;5.90;;
77451;SDS011;66537;52.370;4.832;2023-11-21T02:49:50;17.17;;;5.70;;
77451;SDS011;66537;52.370;4.832;2023-11-21T02:52:17;19.55;;;5.80;;
77451;SDS011;66537;52.370;4.832;2023-11-21T02:54:42;18.10;;;5.68;;
77451;SDS011;66537;52.370;4.832;2023-11-21T02:57:08;15.18;;;4.82;;
77451;SDS011;66537;52.370;4.832;2023-11-21T02:59:33;15.35;;;5.13;;
77451;SDS011;66537;52.370;4.832;2023-11-21T03:01:58;14.20;;;5.38;;
77451;SDS011;66537;52.370;4.832;2023-11-21T03:04:24;23.93;;;6.23;;
77451;SDS011;66537;52.370;4.832;2023-11-21T03:06:49;18.25;;;5.68;;
77451;SDS011;66537;52.370;4.832;2023-11-21T03:09:14;12.87;;;5.20;;
77451;SDS011;66537;52.370;4.832;2023-11-21T03:11:41;13.70;;;5.20;;
77451;SDS011;66537;52.370;4.832;2023-11-21T03:14:07;18.75;;;5.50;;
77451;SDS011;66537;52.370;4.832;2023-11-21T03:16:32;17.50;;;6.15;;
77451;SDS011;66537;52.370;4.832;2023-11-21T03:18:57;22.05;;;6.20;;
77451;SDS011;66537;52.370;4.832;2023-11-21T03:21:23;20.02;;;5.80;;
77451;SDS011;66537;52.370;4.832;2023-11-21T03:23:49;15.38;;;5.68;;
77451;SDS011;66537;52.370;4.832;2023-11-21T03:26:15;17.60;;;5.85;;
77451;SDS011;66537;52.370;4.832;2023-11-21T03:28:41;16.45;;;5.72;;
77451;SDS011;66537;52.370;4.832;2023-11-21T03:31:07;15.88;;;6.07;;
77451;SDS011;66537;52.370;4.832;2023-11-21T03:33:34;17.73;;;6.35;;
77451;SDS011;66537;52.370;4.832;2023-11-21T03:36:00;14.75;;;6.15;;
77451;SDS011;66537;52.370;4.832;2023-11-21T03:38:25;18.70;;;5.82;;
77451;SDS011;66537;52.370;4.832;2023-11-21T03:40:51;21.57;;;6.90;;
77451;SDS011;66537;52.370;4.832;2023-11-21T03:43:16;18.03;;;5.80;;
77451;SDS011;66537;52.370;4.832;2023-11-21T03:45:41;16.30;;;5.93;;
77451;SDS011;66537;52.370;4.832;2023-11-21T03:48:07;16.07;;;6.63;;
77451;SDS011;66537;52.370;4.832;2023-11-21T03:50:32;19.08;;;5.78;;
77451;SDS011;66537;52.370;4.832;2023-11-21T03:52:58;22.75;;;7.18;;
77451;SDS011;66537;52.370;4.832;2023-11-21T03:55:23;24.23;;;7.13;;
77451;SDS011;66537;52.370;4.832;2023-11-21T03:57:50;21.23;;;7.10;;
77451;SDS011;66537;52.370;4.832;2023-11-21T04:00:16;21.55;;;7.00;;
77451;SDS011;66537;52.370;4.832;2023-11-21T04:02:42;16.25;;;5.70;;
77451;SDS011;66537;52.370;4.832;2023-11-21T04:05:07;21.63;;;7.53;;
77451;SDS011;66537;52.370;4.832;2023-11-21T04:07:33;20.67;;;6.93;;
77451;SDS011;66537;52.370;4.832;2023-11-21T04:09:59;16.97;;;6.03;;
77451;SDS011;66537;52.370;4.832;2023-11-21T04:12:24;17.92;;;6.82;;
77451;SDS011;66537;52.370;4.832;2023-11-21T04:14:50;19.10;;;7.25;;
77451;SDS011;66537;52.370;4.832;2023-11-21T04:17:17;20.23;;;6.47;;
77451;SDS011;66537;52.370;4.832;2023-11-21T04:19:43;20.13;;;6.82;;
77451;SDS011;66537;52.370;4.832;2023-11-21T04:22:08;21.27;;;6.17;;
77451;SDS011;66537;52.370;4.832;2023-11-21T04:24:34;20.25;;;6.97;;
77451;SDS011;66537;52.370;4.832;2023-11-21T04:26:59;13.57;;;5.53;;
77451;SDS011;66537;52.370;4.832;2023-11-21T04:29:24;15.77;;;6.50;;
77451;SDS011;66537;52.370;4.832;2023-11-21T04:31:50;16.93;;;6.37;;
77451;SDS011;66537;52.370;4.832;2023-11-21T04:34:15;19.30;;;7.27;;
77451;SDS011;66537;52.370;4.832;2023-11-21T04:36:40;17.63;;;6.10;;
77451;SDS011;66537;52.370;4.832;2023-11-21T04:39:06;15.15;;;6.18;;
77451;SDS011;66537;52.370;4.832;2023-11-21T04:41:32;20.17;;;6.88;;
77451;SDS011;66537;52.370;4.832;2023-11-21T04:43:57;13.25;;;5.82;;
77451;SDS011;66537;52.370;4.832;2023-11-21T04:46:23;16.73;;;6.65;;
77451;SDS011;66537;52.370;4.832;2023-11-21T04:48:49;17.23;;;6.20;;
77451;SDS011;66537;52.370;4.832;2023-11-21T04:51:14;21.87;;;7.70;;
77451;SDS011;66537;52.370;4.832;2023-11-21T04:53:39;17.00;;;5.97;;
77451;SDS011;66537;52.370;4.832;2023-11-21T04:56:05;19.08;;;6.78;;
77451;SDS011;66537;52.370;4.832;2023-11-21T04:58:31;17.05;;;4.80;;
77451;SDS011;66537;52.370;4.832;2023-11-21T05:00:57;11.07;;;4.43;;
77451;SDS011;66537;52.370;4.832;2023-11-21T05:03:22;16.33;;;4.82;;
77451;SDS011;66537;52.370;4.832;2023-11-21T05:05:48;12.05;;;4.63;;
77451;SDS011;66537;52.370;4.832;2023-11-21T05:08:14;14.88;;;4.63;;
77451;SDS011;66537;52.370;4.832;2023-11-21T05:10:39;10.43;;;4.55;;
77451;SDS011;66537;52.370;4.832;2023-11-21T05:13:04;14.05;;;4.03;;
77451;SDS011;66537;52.370;4.832;2023-11-21T05:15:34;11.98;;;4.10;;
77451;SDS011;66537;52.370;4.832;2023-11-21T05:18:00;10.70;;;3.70;;
77451;SDS011;66537;52.370;4.832;2023-11-21T05:20:25;10.60;;;3.40;;
77451;SDS011;66537;52.370;4.832;2023-11-21T05:22:51;11.60;;;3.50;;
77451;SDS011;66537;52.370;4.832;2023-11-21T05:25:16;14.23;;;3.95;;
77451;SDS011;66537;52.370;4.832;2023-11-21T05:27:43;7.47;;;2.35;;
77451;SDS011;66537;52.370;4.832;2023-11-21T05:30:09;11.10;;;3.33;;
77451;SDS011;66537;52.370;4.832;2023-11-21T05:32:37;7.57;;;2.55;;
77451;SDS011;66537;52.370;4.832;2023-11-21T05:35:02;8.45;;;2.67;;
77451;SDS011;66537;52.370;4.832;2023-11-21T05:37:28;10.25;;;2.55;;
77451;SDS011;66537;52.370;4.832;2023-11-21T05:39:53;14.63;;;3.67;;
77451;SDS011;66537;52.370;4.832;2023-11-21T05:42:21;10.57;;;2.72;;
77451;SDS011;66537;52.370;4.832;2023-11-21T05:44:48;10.60;;;2.35;;
77451;SDS011;66537;52.370;4.832;2023-11-21T05:47:14;9.65;;;2.75;;
77451;SDS011;66537;52.370;4.832;2023-11-21T05:49:39;10.85;;;3.15;;
77451;SDS011;66537;52.370;4.832;2023-11-21T05:52:05;12.07;;;2.77;;
77451;SDS011;66537;52.370;4.832;2023-11-21T05:54:30;11.30;;;3.42;;
77451;SDS011;66537;52.370;4.832;2023-11-21T05:56:56;12.20;;;2.92;;
77451;SDS011;66537;52.370;4.832;2023-11-21T05:59:21;17.43;;;3.20;;
77451;SDS011;66537;52.370;4.832;2023-11-21T06:01:47;15.38;;;4.03;;
77451;SDS011;66537;52.370;4.832;2023-11-21T06:04:12;12.48;;;3.95;;
77451;SDS011;66537;52.370;4.832;2023-11-21T06:06:38;16.42;;;4.03;;
77451;SDS011;66537;52.370;4.832;2023-11-21T06:09:04;15.60;;;4.53;;
77451;SDS011;66537;52.370;4.832;2023-11-21T06:11:31;13.07;;;3.60;;
77451;SDS011;66537;52.370;4.832;2023-11-21T06:13:56;12.40;;;3.90;;
77451;SDS011;66537;52.370;4.832;2023-11-21T06:16:23;13.25;;;3.65;;
77451;SDS011;66537;52.370;4.832;2023-11-21T06:18:48;12.75;;;3.90;;
77451;SDS011;66537;52.370;4.832;2023-11-21T06:21:14;13.00;;;3.58;;
77451;SDS011;66537;52.370;4.832;2023-11-21T06:23:41;16.58;;;4.65;;
77451;SDS011;66537;52.370;4.832;2023-11-21T06:26:07;15.15;;;4.70;;
77451;SDS011;66537;52.370;4.832;2023-11-21T06:28:34;19.65;;;4.53;;
77451;SDS011;66537;52.370;4.832;2023-11-21T06:30:59;14.00;;;5.07;;
77451;SDS011;66537;52.370;4.832;2023-11-21T06:33:30;15.90;;;4.65;;
77451;SDS011;66537;52.370;4.832;2023-11-21T06:35:58;18.20;;;5.53;;
77451;SDS011;66537;52.370;4.832;2023-11-21T06:38:24;16.15;;;4.78;;
77451;SDS011;66537;52.370;4.832;2023-11-21T06:40:49;14.80;;;5.25;;
77451;SDS011;66537;52.370;4.832;2023-11-21T06:43:14;17.65;;;5.53;;
77451;SDS011;66537;52.370;4.832;2023-11-21T06:45:40;15.93;;;4.53;;
77451;SDS011;66537;52.370;4.832;2023-11-21T06:48:05;15.60;;;4.47;;
77451;SDS011;66537;52.370;4.832;2023-11-21T06:50:31;15.23;;;4.20;;
77451;SDS011;66537;52.370;4.832;2023-11-21T06:52:56;16.52;;;4.65;;
77451;SDS011;66537;52.370;4.832;2023-11-21T06:55:21;11.05;;;4.25;;
77451;SDS011;66537;52.370;4.832;2023-11-21T06:57:47;20.13;;;4.60;;
77451;SDS011;66537;52.370;4.832;2023-11-21T07:00:13;15.68;;;4.80;;
77451;SDS011;66537;52.370;4.832;2023-11-21T07:02:40;14.43;;;4.55;;
77451;SDS011;66537;52.370;4.832;2023-11-21T07:05:06;14.40;;;4.55;;
77451;SDS011;66537;52.370;4.832;2023-11-21T07:07:31;20.80;;;6.35;;
77451;SDS011;66537;52.370;4.832;2023-11-21T07:09:59;20.15;;;5.47;;
77451;SDS011;66537;52.370;4.832;2023-11-21T07:12:28;19.25;;;5.40;;
77451;SDS011;66537;52.370;4.832;2023-11-21T07:14:54;20.23;;;6.55;;
77451;SDS011;66537;52.370;4.832;2023-11-21T07:17:19;17.63;;;5.23;;
77451;SDS011;66537;52.370;4.832;2023-11-21T07:19:44;15.33;;;5.07;;
77451;SDS011;66537;52.370;4.832;2023-11-21T07:22:10;20.08;;;6.30;;
77451;SDS011;66537;52.370;4.832;2023-11-21T07:24:36;19.92;;;6.88;;
77451;SDS011;66537;52.370;4.832;2023-11-21T07:27:01;18.05;;;5.90;;
77451;SDS011;66537;52.370;4.832;2023-11-21T07:29:29;24.27;;;7.05;;
77451;SDS011;66537;52.370;4.832;2023-11-21T07:31:54;18.90;;;6.45;;
77451;SDS011;66537;52.370;4.832;2023-11-21T07:34:20;24.48;;;6.68;;
77451;SDS011;66537;52.370;4.832;2023-11-21T07:36:48;24.05;;;7.75;;
77451;SDS011;66537;52.370;4.832;2023-11-21T07:39:14;21.20;;;6.80;;
77451;SDS011;66537;52.370;4.832;2023-11-21T07:41:41;18.35;;;6.97;;
77451;SDS011;66537;52.370;4.832;2023-11-21T07:44:10;22.63;;;7.22;;
77451;SDS011;66537;52.370;4.832;2023-11-21T07:46:36;22.02;;;7.28;;
77451;SDS011;66537;52.370;4.832;2023-11-21T07:49:01;20.20;;;6.93;;
77451;SDS011;66537;52.370;4.832;2023-11-21T07:51:26;25.13;;;7.53;;
77451;SDS011;66537;52.370;4.832;2023-11-21T07:53:52;27.20;;;6.80;;
77451;SDS011;66537;52.370;4.832;2023-11-21T07:56:17;21.70;;;7.25;;
77451;SDS011;66537;52.370;4.832;2023-11-21T07:58:42;21.27;;;6.78;;
77451;SDS011;66537;52.370;4.832;2023-11-21T08:01:09;26.75;;;7.05;;
77451;SDS011;66537;52.370;4.832;2023-11-21T08:03:34;24.55;;;7.18;;
77451;SDS011;66537;52.370;4.832;2023-11-21T08:06:00;19.50;;;7.27;;
77451;SDS011;66537;52.370;4.832;2023-11-21T08:08:25;25.60;;;7.77;;
77451;SDS011;66537;52.370;4.832;2023-11-21T08:10:51;19.35;;;7.47;;
77451;SDS011;66537;52.370;4.832;2023-11-21T08:13:24;23.88;;;6.72;;
77451;SDS011;66537;52.370;4.832;2023-11-21T08:15:53;19.48;;;6.63;;
77451;SDS011;66537;52.370;4.832;2023-11-21T08:18:19;22.35;;;7.43;;
77451;SDS011;66537;52.370;4.832;2023-11-21T08:20:44;19.57;;;7.30;;
77451;SDS011;66537;52.370;4.832;2023-11-21T08:23:12;22.02;;;7.28;;
77451;SDS011;66537;52.370;4.832;2023-11-21T08:25:40;25.38;;;6.90;;
77451;SDS011;66537;52.370;4.832;2023-11-21T08:28:07;18.45;;;5.95;;
77451;SDS011;66537;52.370;4.832;2023-11-21T08:30:32;19.33;;;6.95;;
77451;SDS011;66537;52.370;4.832;2023-11-21T08:32:58;18.70;;;6.85;;
77451;SDS011;66537;52.370;4.832;2023-11-21T08:35:23;19.83;;;6.70;;
77451;SDS011;66537;52.370;4.832;2023-11-21T08:37:52;17.30;;;6.13;;
77451;SDS011;66537;52.370;4.832;2023-11-21T08:40:18;22.90;;;7.80;;
77451;SDS011;66537;52.370;4.832;2023-11-21T08:42:44;18.13;;;6.60;;
77451;SDS011;66537;52.370;4.832;2023-11-21T08:45:10;22.13;;;8.27;;
77451;SDS011;66537;52.370;4.832;2023-11-21T08:47:37;22.85;;;7.43;;
77451;SDS011;66537;52.370;4.832;2023-11-21T08:50:03;18.98;;;7.43;;
77451;SDS011;66537;52.370;4.832;2023-11-21T08:52:31;26.33;;;7.50;;
77451;SDS011;66537;52.370;4.832;2023-11-21T08:54:56;21.58;;;7.85;;
77451;SDS011;66537;52.370;4.832;2023-11-21T08:57:22;25.30;;;7.90;;
77451;SDS011;66537;52.370;4.832;2023-11-21T08:59:48;22.30;;;8.27;;
77451;SDS011;66537;52.370;4.832;2023-11-21T09:02:13;21.80;;;7.90;;
77451;SDS011;66537;52.370;4.832;2023-11-21T09:04:39;23.40;;;8.27;;
77451;SDS011;66537;52.370;4.832;2023-11-21T09:07:04;22.30;;;8.33;;
77451;SDS011;66537;52.370;4.832;2023-11-21T09:09:30;22.73;;;8.10;;
77451;SDS011;66537;52.370;4.832;2023-11-21T09:11:55;19.67;;;7.25;;
77451;SDS011;66537;52.370;4.832;2023-11-21T09:14:21;21.25;;;7.55;;
77451;SDS011;66537;52.370;4.832;2023-11-21T09:16:46;23.07;;;8.27;;
77451;SDS011;66537;52.370;4.832;2023-11-21T09:19:12;20.13;;;7.70;;
77451;SDS011;66537;52.370;4.832;2023-11-21T09:21:39;23.20;;;8.07;;
77451;SDS011;66537;52.370;4.832;2023-11-21T09:24:04;24.20;;;7.82;;
77451;SDS011;66537;52.370;4.832;2023-11-21T09:26:30;20.92;;;8.07;;
77451;SDS011;66537;52.370;4.832;2023-11-21T09:28:55;22.70;;;8.43;;
77451;SDS011;66537;52.370;4.832;2023-11-21T09:31:21;20.80;;;7.93;;
77451;SDS011;66537;52.370;4.832;2023-11-21T09:33:48;24.60;;;8.77;;
77451;SDS011;66537;52.370;4.832;2023-11-21T09:36:16;21.67;;;7.90;;
77451;SDS011;66537;52.370;4.832;2023-11-21T09:38:41;22.40;;;8.15;;
77451;SDS011;66537;52.370;4.832;2023-11-21T09:41:11;25.45;;;8.90;;
77451;SDS011;66537;52.370;4.832;2023-11-21T09:43:46;22.02;;;7.65;;
77451;SDS011;66537;52.370;4.832;2023-11-21T09:46:12;23.30;;;8.75;;
77451;SDS011;66537;52.370;4.832;2023-11-21T09:48:44;25.95;;;8.90;;
77451;SDS011;66537;52.370;4.832;2023-11-21T09:51:11;31.13;;;9.73;;
77451;SDS011;66537;52.370;4.832;2023-11-21T09:53:37;24.92;;;9.02;;
77451;SDS011;66537;52.370;4.832;2023-11-21T09:56:04;24.83;;;8.75;;
77451;SDS011;66537;52.370;4.832;2023-11-21T09:58:30;24.05;;;8.57;;
77451;SDS011;66537;52.370;4.832;2023-11-21T10:00:59;21.83;;;7.80;;
77451;SDS011;66537;52.370;4.832;2023-11-21T10:03:28;27.08;;;8.65;;
77451;SDS011;66537;52.370;4.832;2023-11-21T10:05:53;21.87;;;8.07;;
77451;SDS011;66537;52.370;4.832;2023-11-21T10:08:21;22.15;;;7.53;;
77451;SDS011;66537;52.370;4.832;2023-11-21T10:10:49;19.50;;;6.55;;
77451;SDS011;66537;52.370;4.832;2023-11-21T10:13:18;22.65;;;7.75;;
77451;SDS011;66537;52.370;4.832;2023-11-21T10:15:44;23.77;;;7.63;;
77451;SDS011;66537;52.370;4.832;2023-11-21T10:18:15;25.50;;;7.65;;
77451;SDS011;66537;52.370;4.832;2023-11-21T10:20:42;21.55;;;7.47;;
77451;SDS011;66537;52.370;4.832;2023-11-21T10:23:08;21.02;;;7.25;;
77451;SDS011;66537;52.370;4.832;2023-11-21T10:25:36;19.52;;;7.30;;
77451;SDS011;66537;52.370;4.832;2023-11-21T10:28:02;20.58;;;7.25;;
77451;SDS011;66537;52.370;4.832;2023-11-21T10:30:37;22.58;;;7.75;;
77451;SDS011;66537;52.370;4.832;2023-11-21T10:33:06;21.80;;;7.03;;
77451;SDS011;66537;52.370;4.832;2023-11-21T10:35:45;18.90;;;6.85;;
77451;SDS011;66537;52.370;4.832;2023-11-21T10:38:13;15.50;;;6.05;;
77451;SDS011;66537;52.370;4.832;2023-11-21T10:40:42;17.30;;;5.55;;
77451;SDS011;66537;52.370;4.832;2023-11-21T10:45:38;19.02;;;6.18;;
77451;SDS011;66537;52.370;4.832;2023-11-21T10:48:07;17.60;;;5.28;;
77451;SDS011;66537;52.370;4.832;2023-11-21T10:50:43;19.75;;;6.90;;
77451;SDS011;66537;52.370;4.832;2023-11-21T10:53:10;17.95;;;6.25;;
77451;SDS011;66537;52.370;4.832;2023-11-21T10:55:37;14.85;;;5.20;;
77451;SDS011;66537;52.370;4.832;2023-11-21T10:58:02;15.48;;;6.28;;
77451;SDS011;66537;52.370;4.832;2023-11-21T11:00:30;15.38;;;6.18;;
77451;SDS011;66537;52.370;4.832;2023-11-21T11:02:56;17.55;;;6.28;;
77451;SDS011;66537;52.370;4.832;2023-11-21T11:05:24;16.63;;;6.38;;
77451;SDS011;66537;52.370;4.832;2023-11-21T11:07:53;17.33;;;5.97;;
77451;SDS011;66537;52.370;4.832;2023-11-21T11:10:26;15.48;;;6.35;;
77451;SDS011;66537;52.370;4.832;2023-11-21T11:12:54;16.35;;;6.75;;
77451;SDS011;66537;52.370;4.832;2023-11-21T11:15:20;17.90;;;7.18;;
77451;SDS011;66537;52.370;4.832;2023-11-21T11:17:46;16.70;;;7.15;;
77451;SDS011;66537;52.370;4.832;2023-11-21T11:20:13;18.98;;;7.20;;
77451;SDS011;66537;52.370;4.832;2023-11-21T11:28:36;17.48;;;6.82;;
77451;SDS011;66537;52.370;4.832;2023-11-21T11:34:01;18.67;;;7.60;;
77451;SDS011;66537;52.370;4.832;2023-11-21T11:36:36;18.27;;;7.90;;
77451;SDS011;66537;52.370;4.832;2023-11-21T11:41:52;15.68;;;6.15;;
77451;SDS011;66537;52.370;4.832;2023-11-21T11:45:03;14.63;;;6.35;;
77451;SDS011;66537;52.370;4.832;2023-11-21T11:47:16;17.00;;;6.25;;
77451;SDS011;66537;52.370;4.832;2023-11-21T11:52:47;15.48;;;4.90;;
77451;SDS011;66537;52.370;4.832;2023-11-21T11:55:16;13.85;;;5.00;;
77451;SDS011;66537;52.370;4.832;2023-11-21T11:57:44;15.52;;;6.65;;
77451;SDS011;66537;52.370;4.832;2023-11-21T12:02:41;13.88;;;5.95;;
77451;SDS011;66537;52.370;4.832;2023-11-21T12:05:12;14.07;;;5.95;;
77451;SDS011;66537;52.370;4.832;2023-11-21T12:07:52;19.48;;;6.38;;
77451;SDS011;66537;52.370;4.832;2023-11-21T12:12:54;16.20;;;5.80;;
77451;SDS011;66537;52.370;4.832;2023-11-21T12:15:20;15.45;;;5.90;;
77451;SDS011;66537;52.370;4.832;2023-11-21T12:17:46;13.80;;;6.28;;
77451;SDS011;66537;52.370;4.832;2023-11-21T12:20:14;13.57;;;5.47;;
77451;SDS011;66537;52.370;4.832;2023-11-21T12:22:43;16.33;;;5.40;;
77451;SDS011;66537;52.370;4.832;2023-11-21T12:25:16;17.67;;;6.05;;
77451;SDS011;66537;52.370;4.832;2023-11-21T12:27:43;16.63;;;6.03;;
77451;SDS011;66537;52.370;4.832;2023-11-21T12:30:10;21.30;;;7.82;;
77451;SDS011;66537;52.370;4.832;2023-11-21T12:32:42;15.32;;;6.28;;
77451;SDS011;66537;52.370;4.832;2023-11-21T12:37:35;17.13;;;6.60;;
77451;SDS011;66537;52.370;4.832;2023-11-21T12:40:02;17.65;;;6.28;;
77451;SDS011;66537;52.370;4.832;2023-11-21T12:42:29;16.63;;;6.25;;
77451;SDS011;66537;52.370;4.832;2023-11-21T12:47:48;18.10;;;7.00;;
77451;SDS011;66537;52.370;4.832;2023-11-21T12:50:22;18.17;;;7.20;;
77451;SDS011;66537;52.370;4.832;2023-11-21T12:52:51;18.08;;;7.13;;
77451;SDS011;66537;52.370;4.832;2023-11-21T12:55:18;17.90;;;7.18;;
77451;SDS011;66537;52.370;4.832;2023-11-21T12:57:49;17.90;;;7.63;;
77451;SDS011;66537;52.370;4.832;2023-11-21T13:00:19;19.35;;;7.88;;
77451;SDS011;66537;52.370;4.832;2023-11-21T13:02:57;19.00;;;8.20;;
77451;SDS011;66537;52.370;4.832;2023-11-21T13:05:27;21.83;;;8.82;;
77451;SDS011;66537;52.370;4.832;2023-11-21T13:07:54;22.98;;;9.55;;
77451;SDS011;66537;52.370;4.832;2023-11-21T13:10:23;21.38;;;9.73;;
77451;SDS011;66537;52.370;4.832;2023-11-21T13:12:56;24.55;;;9.75;;
77451;SDS011;66537;52.370;4.832;2023-11-21T13:15:26;21.85;;;8.65;;
77451;SDS011;66537;52.370;4.832;2023-11-21T13:17:52;21.27;;;8.82;;
77451;SDS011;66537;52.370;4.832;2023-11-21T13:20:18;19.95;;;8.98;;
77451;SDS011;66537;52.370;4.832;2023-11-21T13:22:48;20.23;;;8.23;;
77451;SDS011;66537;52.370;4.832;2023-11-21T13:25:23;21.13;;;8.13;;
77451;SDS011;66537;52.370;4.832;2023-11-21T13:27:48;17.77;;;7.95;;
77451;SDS011;66537;52.370;4.832;2023-11-21T13:30:15;18.45;;;7.72;;
77451;SDS011;66537;52.370;4.832;2023-11-21T13:32:44;17.55;;;8.02;;
77451;SDS011;66537;52.370;4.832;2023-11-21T13:35:16;16.83;;;7.38;;
77451;SDS011;66537;52.370;4.832;2023-11-21T13:37:55;16.17;;;6.78;;
77451;SDS011;66537;52.370;4.832;2023-11-21T13:40:22;16.67;;;6.50;;
77451;SDS011;66537;52.370;4.832;2023-11-21T13:42:52;16.60;;;6.68;;
77451;SDS011;66537;52.370;4.832;2023-11-21T13:45:23;16.05;;;6.78;;
77451;SDS011;66537;52.370;4.832;2023-11-21T13:47:50;16.73;;;6.30;;
77451;SDS011;66537;52.370;4.832;2023-11-21T13:50:20;14.23;;;6.15;;
77451;SDS011;66537;52.370;4.832;2023-11-21T13:52:53;13.85;;;5.85;;
77451;SDS011;66537;52.370;4.832;2023-11-21T13:55:19;12.00;;;5.18;;
77451;SDS011;66537;52.370;4.832;2023-11-21T13:57:45;13.25;;;6.55;;
77451;SDS011;66537;52.370;4.832;2023-11-21T14:00:14;13.15;;;5.65;;
77451;SDS011;66537;52.370;4.832;2023-11-21T14:03:01;14.77;;;5.15;;
77451;SDS011;66537;52.370;4.832;2023-11-21T14:05:27;13.15;;;6.15;;
77451;SDS011;66537;52.370;4.832;2023-11-21T14:07:56;13.57;;;5.78;;
77451;SDS011;66537;52.370;4.832;2023-11-21T14:10:28;14.98;;;6.85;;
77451;SDS011;66537;52.370;4.832;2023-11-21T14:13:02;12.35;;;5.35;;
77451;SDS011;66537;52.370;4.832;2023-11-21T14:15:27;13.50;;;5.68;;
77451;SDS011;66537;52.370;4.832;2023-11-21T14:17:54;15.23;;;6.00;;
77451;SDS011;66537;52.370;4.832;2023-11-21T14:20:19;19.40;;;7.43;;
77451;SDS011;66537;52.370;4.832;2023-11-21T14:22:46;16.33;;;7.05;;
77451;SDS011;66537;52.370;4.832;2023-11-21T14:25:11;15.43;;;6.78;;
77451;SDS011;66537;52.370;4.832;2023-11-21T14:27:37;15.13;;;5.95;;
77451;SDS011;66537;52.370;4.832;2023-11-21T14:30:03;14.25;;;6.60;;
77451;SDS011;66537;52.370;4.832;2023-11-21T14:32:30;13.05;;;6.10;;
77451;SDS011;66537;52.370;4.832;2023-11-21T14:34:56;14.35;;;7.20;;
77451;SDS011;66537;52.370;4.832;2023-11-21T14:37:21;16.77;;;6.27;;
77451;SDS011;66537;52.370;4.832;2023-11-21T14:39:46;15.03;;;7.17;;
77451;SDS011;66537;52.370;4.832;2023-11-21T14:42:14;15.52;;;7.63;;
77451;SDS011;66537;52.370;4.832;2023-11-21T14:44:40;16.80;;;7.47;;
77451;SDS011;66537;52.370;4.832;2023-11-21T14:47:07;16.88;;;8.18;;
77451;SDS011;66537;52.370;4.832;2023-11-21T14:49:42;17.77;;;8.48;;
77451;SDS011;66537;52.370;4.832;2023-11-21T14:52:23;19.23;;;7.78;;
77451;SDS011;66537;52.370;4.832;2023-11-21T14:54:58;20.77;;;8.75;;
77451;SDS011;66537;52.370;4.832;2023-11-21T14:57:44;18.23;;;8.18;;
77451;SDS011;66537;52.370;4.832;2023-11-21T15:00:15;17.08;;;8.32;;
77451;SDS011;66537;52.370;4.832;2023-11-21T15:03:01;19.30;;;8.90;;
77451;SDS011;66537;52.370;4.832;2023-11-21T15:05:27;20.45;;;9.50;;